sensor_id;sensor_type;location;lat;lon;timestamp;pressure;altitude;pressure_sealevel;temperature;humidity
55317;BME280;41178;48.956;8.130;2023-04-25T00:03:57;99189.78;;;8.66;52.48
55317;BME280;41178;48.956;8.130;2023-04-25T00:08:59;99205.41;;;8.84;51.96
55317;BME280;41178;48.956;8.130;2023-04-25T00:14:01;99254.69;;;9.40;52.08
55317;BME280;41178;48.956;8.130;2023-04-25T00:19:03;99247.34;;;9.64;51.16
55317;BME280;41178;48.956;8.130;2023-04-25T00:24:06;99188.53;;;8.84;52.15
55317;BME280;41178;48.956;8.130;2023-04-25T00:34:19;99231.41;;;9.34;51.40
55317;BME280;41178;48.956;8.130;2023-04-25T00:39:21;99165.13;;;8.64;52.66
55317;BME280;41178;48.956;8.130;2023-04-25T00:44:24;99255.28;;;9.57;51.68
55317;BME280;41178;48.956;8.130;2023-04-25T00:49:25;99245.66;;;9.63;50.98
55317;BME280;41178;48.956;8.130;2023-04-25T00:54:27;99157.16;;;8.50;52.70
55317;BME280;41178;48.956;8.130;2023-04-25T00:59:30;99242.88;;;9.49;51.75
55317;BME280;41178;48.956;8.130;2023-04-25T01:04:32;99171.09;;;8.81;51.93
55317;BME280;41178;48.956;8.130;2023-04-25T01:09:34;99213.50;;;9.49;51.13
55317;BME280;41178;48.956;8.130;2023-04-25T01:14:36;99233.91;;;9.57;50.98
55317;BME280;41178;48.956;8.130;2023-04-25T01:19:38;99237.91;;;9.46;51.35
55317;BME280;41178;48.956;8.130;2023-04-25T01:24:40;99120.78;;;7.97;54.04
55317;BME280;41178;48.956;8.130;2023-04-25T01:29:42;99222.13;;;9.08;52.79
55317;BME280;41178;48.956;8.130;2023-04-25T01:34:43;99187.66;;;8.62;52.89
55317;BME280;41178;48.956;8.130;2023-04-25T01:39:45;99211.91;;;8.82;53.04
55317;BME280;41178;48.956;8.130;2023-04-25T01:44:47;99224.00;;;9.14;53.06
55317;BME280;41178;48.956;8.130;2023-04-25T01:49:49;99168.81;;;8.48;53.22
55317;BME280;41178;48.956;8.130;2023-04-25T01:54:51;99222.13;;;9.08;52.51
55317;BME280;41178;48.956;8.130;2023-04-25T02:00:02;99193.53;;;8.87;52.98
55317;BME280;41178;48.956;8.130;2023-04-25T02:05:05;99219.00;;;9.26;52.56
55317;BME280;41178;48.956;8.130;2023-04-25T02:10:07;99199.41;;;8.97;52.51
55317;BME280;41178;48.956;8.130;2023-04-25T02:15:09;99219.72;;;9.35;52.25
55317;BME280;41178;48.956;8.130;2023-04-25T02:20:11;99200.50;;;9.25;52.09
55317;BME280;41178;48.956;8.130;2023-04-25T02:25:13;99263.97;;;10.72;50.32
55317;BME280;41178;48.956;8.130;2023-04-25T02:30:15;99260.56;;;10.85;49.85
55317;BME280;41178;48.956;8.130;2023-04-25T02:35:17;99287.84;;;11.15;49.50
55317;BME280;41178;48.956;8.130;2023-04-25T02:40:18;99239.66;;;10.04;51.36
55317;BME280;41178;48.956;8.130;2023-04-25T02:45:21;99244.31;;;9.95;51.52
55317;BME280;41178;48.956;8.130;2023-04-25T02:50:22;99187.88;;;9.12;53.01
55317;BME280;41178;48.956;8.130;2023-04-25T02:55:24;99156.94;;;8.66;53.83
55317;BME280;41178;48.956;8.130;2023-04-25T03:00:28;99220.03;;;9.25;52.84
55317;BME280;41178;48.956;8.130;2023-04-25T03:05:30;99213.16;;;10.09;50.61
55317;BME280;41178;48.956;8.130;2023-04-25T03:10:32;99192.25;;;9.63;51.37
55317;BME280;41178;48.956;8.130;2023-04-25T03:15:35;99211.16;;;10.11;50.73
55317;BME280;41178;48.956;8.130;2023-04-25T03:20:37;99246.72;;;10.75;49.57
55317;BME280;41178;48.956;8.130;2023-04-25T03:25:40;99216.63;;;10.38;50.46
55317;BME280;41178;48.956;8.130;2023-04-25T03:30:42;99139.50;;;9.21;52.40
55317;BME280;41178;48.956;8.130;2023-04-25T03:35:44;99247.59;;;10.82;50.27
55317;BME280;41178;48.956;8.130;2023-04-25T03:40:45;99215.19;;;10.35;50.70
55317;BME280;41178;48.956;8.130;2023-04-25T03:45:47;99190.88;;;9.45;52.17
55317;BME280;41178;48.956;8.130;2023-04-25T03:50:49;99169.56;;;9.09;53.48
55317;BME280;41178;48.956;8.130;2023-04-25T03:55:51;99195.03;;;9.98;50.76
55317;BME280;41178;48.956;8.130;2023-04-25T04:00:53;99129.31;;;8.89;52.56
55317;BME280;41178;48.956;8.130;2023-04-25T04:05:54;99178.63;;;9.14;52.66
55317;BME280;41178;48.956;8.130;2023-04-25T04:10:57;99218.31;;;10.39;51.11
55317;BME280;41178;48.956;8.130;2023-04-25T04:15:59;99201.25;;;10.40;50.90
55317;BME280;41178;48.956;8.130;2023-04-25T04:21:01;99169.91;;;9.70;51.98
55317;BME280;41178;48.956;8.130;2023-04-25T04:26:03;99200.88;;;10.49;50.43
55317;BME280;41178;48.956;8.130;2023-04-25T04:31:05;99196.06;;;10.31;51.18
55317;BME280;41178;48.956;8.130;2023-04-25T04:36:07;99244.50;;;10.92;50.37
55317;BME280;41178;48.956;8.130;2023-04-25T04:41:09;99238.75;;;10.88;50.16
55317;BME280;41178;48.956;8.130;2023-04-25T04:46:10;99241.03;;;10.91;50.22
55317;BME280;41178;48.956;8.130;2023-04-25T04:51:14;99186.63;;;9.79;51.49
55317;BME280;41178;48.956;8.130;2023-04-25T04:56:15;99199.28;;;9.92;52.00
55317;BME280;41178;48.956;8.130;2023-04-25T05:01:17;99249.00;;;10.78;50.87
55317;BME280;41178;48.956;8.130;2023-04-25T05:06:19;99300.63;;;11.75;49.49
55317;BME280;41178;48.956;8.130;2023-04-25T05:11:22;99290.88;;;11.54;49.25
55317;BME280;41178;48.956;8.130;2023-04-25T05:16:23;99278.69;;;11.38;49.44
55317;BME280;41178;48.956;8.130;2023-04-25T05:21:25;99249.47;;;10.95;50.18
55317;BME280;41178;48.956;8.130;2023-04-25T05:26:27;99216.91;;;10.49;50.59
55317;BME280;41178;48.956;8.130;2023-04-25T05:31:32;99204.81;;;10.19;51.46
55317;BME280;41178;48.956;8.130;2023-04-25T05:36:34;99231.09;;;10.43;51.96
55317;BME280;41178;48.956;8.130;2023-04-25T05:41:36;99248.59;;;10.81;50.96
55317;BME280;41178;48.956;8.130;2023-04-25T05:46:37;99275.09;;;11.11;51.29
55317;BME280;41178;48.956;8.130;2023-04-25T05:51:39;99177.34;;;9.75;52.62
55317;BME280;41178;48.956;8.130;2023-04-25T05:56:41;99220.31;;;10.02;52.64
55317;BME280;41178;48.956;8.130;2023-04-25T06:01:42;99231.34;;;10.20;52.82
55317;BME280;41178;48.956;8.130;2023-04-25T06:06:44;99201.94;;;9.42;54.13
55317;BME280;41178;48.956;8.130;2023-04-25T06:11:46;99230.91;;;10.17;53.29
55317;BME280;41178;48.956;8.130;2023-04-25T06:16:47;99226.44;;;10.24;52.35
55317;BME280;41178;48.956;8.130;2023-04-25T06:21:49;99248.44;;;10.54;52.34
55317;BME280;41178;48.956;8.130;2023-04-25T06:26:51;99269.13;;;11.09;51.15
55317;BME280;41178;48.956;8.130;2023-04-25T06:31:52;99254.00;;;10.87;52.25
55317;BME280;41178;48.956;8.130;2023-04-25T06:36:54;99267.41;;;10.94;51.49
55317;BME280;41178;48.956;8.130;2023-04-25T06:41:56;99258.81;;;10.70;52.54
55317;BME280;41178;48.956;8.130;2023-04-25T06:46:57;99248.44;;;10.54;52.48
55317;BME280;41178;48.956;8.130;2023-04-25T06:51:59;99128.25;;;8.68;55.18
55317;BME280;41178;48.956;8.130;2023-04-25T06:57:01;99240.22;;;9.92;53.71
55317;BME280;41178;48.956;8.130;2023-04-25T07:02:03;99213.72;;;9.33;54.49
55317;BME280;41178;48.956;8.130;2023-04-25T07:07:05;99185.63;;;8.64;56.89
55317;BME280;41178;48.956;8.130;2023-04-25T07:12:06;99247.66;;;9.54;54.86
55317;BME280;41178;48.956;8.130;2023-04-25T07:17:08;99275.91;;;9.85;54.94
55317;BME280;41178;48.956;8.130;2023-04-25T07:22:11;99245.06;;;9.24;55.17
55317;BME280;41178;48.956;8.130;2023-04-25T07:27:12;99176.38;;;8.30;57.15
55317;BME280;41178;48.956;8.130;2023-04-25T07:32:14;99254.34;;;9.07;56.64
55317;BME280;41178;48.956;8.130;2023-04-25T07:37:16;99194.56;;;8.26;58.62
55317;BME280;41178;48.956;8.130;2023-04-25T07:42:20;99276.72;;;9.85;54.71
55317;BME280;41178;48.956;8.130;2023-04-25T07:47:22;99272.13;;;8.99;57.55
55317;BME280;41178;48.956;8.130;2023-04-25T07:52:24;99267.59;;;8.70;57.55
55317;BME280;41178;48.956;8.130;2023-04-25T07:57:26;99194.81;;;7.87;58.39
55317;BME280;41178;48.956;8.130;2023-04-25T08:02:27;99263.34;;;8.31;58.41
55317;BME280;41178;48.956;8.130;2023-04-25T08:07:29;99289.94;;;8.54;57.91
55317;BME280;41178;48.956;8.130;2023-04-25T08:12:31;99341.66;;;9.64;56.30
55317;BME280;41178;48.956;8.130;2023-04-25T08:17:33;99324.25;;;8.72;57.33
55317;BME280;41178;48.956;8.130;2023-04-25T08:22:35;99241.22;;;7.69;60.05
55317;BME280;41178;48.956;8.130;2023-04-25T08:27:36;99255.84;;;7.50;59.97
55317;BME280;41178;48.956;8.130;2023-04-25T08:32:38;99334.22;;;8.02;59.21
55317;BME280;41178;48.956;8.130;2023-04-25T08:37:40;99365.75;;;8.37;58.37
55317;BME280;41178;48.956;8.130;2023-04-25T08:42:42;99387.59;;;8.55;58.37
55317;BME280;41178;48.956;8.130;2023-04-25T08:47:45;99404.97;;;9.04;57.24
55317;BME280;41178;48.956;8.130;2023-04-25T08:52:47;99385.97;;;8.84;56.54
55317;BME280;41178;48.956;8.130;2023-04-25T08:57:52;99410.59;;;8.56;58.10
55317;BME280;41178;48.956;8.130;2023-04-25T09:02:57;99468.84;;;9.80;56.89
55317;BME280;41178;48.956;8.130;2023-04-25T09:08:00;99417.38;;;8.44;58.31
55317;BME280;41178;48.956;8.130;2023-04-25T09:13:28;99375.97;;;7.87;58.21
55317;BME280;41178;48.956;8.130;2023-04-25T09:18:32;99460.50;;;8.47;58.82
55317;BME280;41178;48.956;8.130;2023-04-25T09:23:41;99482.88;;;8.84;57.00
55317;BME280;41178;48.956;8.130;2023-04-25T09:28:43;99544.66;;;10.24;55.50
55317;BME280;41178;48.956;8.130;2023-04-25T09:33:44;99521.84;;;9.76;54.78
55317;BME280;41178;48.956;8.130;2023-04-25T09:38:47;99506.28;;;8.97;55.18
55317;BME280;41178;48.956;8.130;2023-04-25T09:43:49;99522.81;;;9.16;54.53
55317;BME280;41178;48.956;8.130;2023-04-25T09:48:51;99522.31;;;9.35;53.87
55317;BME280;41178;48.956;8.130;2023-04-25T09:53:55;99645.38;;;11.04;52.71
55317;BME280;41178;48.956;8.130;2023-04-25T09:58:57;99586.50;;;10.31;52.58
55317;BME280;41178;48.956;8.130;2023-04-25T10:04:00;99657.09;;;11.25;50.92
55317;BME280;41178;48.956;8.130;2023-04-25T10:09:03;99544.50;;;9.66;52.48
55317;BME280;41178;48.956;8.130;2023-04-25T10:14:06;99584.03;;;10.15;51.11
55317;BME280;41178;48.956;8.130;2023-04-25T10:19:07;99560.91;;;9.63;52.13
55317;BME280;41178;48.956;8.130;2023-04-25T10:24:09;99636.25;;;10.62;50.53
55317;BME280;41178;48.956;8.130;2023-04-25T10:29:11;99711.34;;;11.98;48.80
55317;BME280;41178;48.956;8.130;2023-04-25T10:34:13;99571.31;;;10.02;50.05
55317;BME280;41178;48.956;8.130;2023-04-25T10:39:21;99541.97;;;9.19;51.71
55317;BME280;41178;48.956;8.130;2023-04-25T10:44:30;99679.16;;;11.27;49.35
55317;BME280;41178;48.956;8.130;2023-04-25T10:49:45;99710.25;;;11.93;48.43
55317;BME280;41178;48.956;8.130;2023-04-25T10:54:56;99611.22;;;10.85;47.94
55317;BME280;41178;48.956;8.130;2023-04-25T11:00:23;99635.03;;;11.01;48.37
55317;BME280;41178;48.956;8.130;2023-04-25T11:06:55;99620.22;;;8.97;51.89
55317;BME280;41178;48.956;8.130;2023-04-25T11:12:08;99656.06;;;9.26;56.21
55317;BME280;41178;48.956;8.130;2023-04-25T11:17:11;99623.59;;;8.91;56.85
55317;BME280;41178;48.956;8.130;2023-04-25T11:22:13;99588.94;;;8.28;57.06
55317;BME280;41178;48.956;8.130;2023-04-25T11:27:14;99440.75;;;6.84;59.79
55317;BME280;41178;48.956;8.130;2023-04-25T11:32:17;99452.34;;;6.33;63.00
55317;BME280;41178;48.956;8.130;2023-04-25T11:37:21;99352.84;;;5.36;65.06
55317;BME280;41178;48.956;8.130;2023-04-25T11:42:23;99407.09;;;5.41;64.82
55317;BME280;41178;48.956;8.130;2023-04-25T11:47:32;99396.91;;;5.20;64.59
55317;BME280;41178;48.956;8.130;2023-04-25T11:52:44;99509.00;;;5.83;64.43
55317;BME280;41178;48.956;8.130;2023-04-25T11:57:48;99642.72;;;7.10;61.88
55317;BME280;41178;48.956;8.130;2023-04-25T12:02:55;99649.56;;;7.62;60.02
55317;BME280;41178;48.956;8.130;2023-04-25T12:08:12;99611.13;;;6.98;59.77
55317;BME280;41178;48.956;8.130;2023-04-25T12:13:32;99669.75;;;8.68;56.71
55317;BME280;41178;48.956;8.130;2023-04-25T12:18:35;99721.97;;;9.48;55.86
55317;BME280;41178;48.956;8.130;2023-04-25T12:23:38;99600.81;;;7.36;59.88
55317;BME280;41178;48.956;8.130;2023-04-25T12:28:45;99714.09;;;8.69;58.94
55317;BME280;41178;48.956;8.130;2023-04-25T12:33:46;99693.41;;;8.71;56.54
55317;BME280;41178;48.956;8.130;2023-04-25T12:38:49;99705.47;;;8.03;58.19
55317;BME280;41178;48.956;8.130;2023-04-25T12:43:51;99675.44;;;8.25;56.95
55317;BME280;41178;48.956;8.130;2023-04-25T12:48:53;99693.16;;;7.94;57.92
55317;BME280;41178;48.956;8.130;2023-04-25T12:53:56;99689.34;;;7.71;57.93
55317;BME280;41178;48.956;8.130;2023-04-25T12:58:58;99657.22;;;7.73;58.56
55317;BME280;41178;48.956;8.130;2023-04-25T13:03:59;99702.31;;;7.91;58.66
55317;BME280;41178;48.956;8.130;2023-04-25T13:09:02;99691.97;;;8.04;59.91
55317;BME280;41178;48.956;8.130;2023-04-25T13:14:04;99688.47;;;7.71;60.17
55317;BME280;41178;48.956;8.130;2023-04-25T13:19:06;99733.09;;;8.74;59.94
55317;BME280;41178;48.956;8.130;2023-04-25T13:24:09;99713.19;;;8.45;58.15
55317;BME280;41178;48.956;8.130;2023-04-25T13:29:11;99806.53;;;9.64;57.79
55317;BME280;41178;48.956;8.130;2023-04-25T13:34:12;99780.88;;;9.32;57.27
55317;BME280;41178;48.956;8.130;2023-04-25T13:39:14;99671.19;;;7.91;57.93
55317;BME280;41178;48.956;8.130;2023-04-25T13:44:16;99755.78;;;8.62;55.67
55317;BME280;41178;48.956;8.130;2023-04-25T13:49:18;99855.34;;;10.27;51.77
55317;BME280;41178;48.956;8.130;2023-04-25T13:54:19;99711.16;;;7.91;55.29
55317;BME280;41178;48.956;8.130;2023-04-25T13:59:21;99789.84;;;9.62;53.63
55317;BME280;41178;48.956;8.130;2023-04-25T14:04:23;99726.59;;;8.69;54.28
55317;BME280;41178;48.956;8.130;2023-04-25T14:09:25;99808.00;;;9.67;53.07
55317;BME280;41178;48.956;8.130;2023-04-25T14:14:28;99797.66;;;9.40;52.35
55317;BME280;41178;48.956;8.130;2023-04-25T14:19:30;99778.56;;;8.89;53.03
55317;BME280;41178;48.956;8.130;2023-04-25T14:24:31;99895.97;;;10.84;51.08
55317;BME280;41178;48.956;8.130;2023-04-25T14:29:34;99864.88;;;11.64;49.52
55317;BME280;41178;48.956;8.130;2023-04-25T14:34:35;99831.72;;;10.99;50.32
55317;BME280;41178;48.956;8.130;2023-04-25T14:39:37;99695.09;;;9.03;52.73
55317;BME280;41178;48.956;8.130;2023-04-25T14:44:39;99733.66;;;8.53;55.99
55317;BME280;41178;48.956;8.130;2023-04-25T14:49:41;99762.16;;;9.00;55.90
55317;BME280;41178;48.956;8.130;2023-04-25T14:54:42;99794.50;;;9.37;54.53
55317;BME280;41178;48.956;8.130;2023-04-25T14:59:44;99730.63;;;7.92;56.81
55317;BME280;41178;48.956;8.130;2023-04-25T15:04:47;99778.31;;;8.59;56.44
55317;BME280;41178;48.956;8.130;2023-04-25T15:09:49;99813.38;;;8.96;56.59
55317;BME280;41178;48.956;8.130;2023-04-25T15:14:51;99718.25;;;7.17;59.08
55317;BME280;41178;48.956;8.130;2023-04-25T15:19:53;99776.22;;;7.72;58.28
55317;BME280;41178;48.956;8.130;2023-04-25T15:24:56;99818.50;;;8.58;56.55
55317;BME280;41178;48.956;8.130;2023-04-25T15:29:58;99777.06;;;7.73;57.31
55317;BME280;41178;48.956;8.130;2023-04-25T15:35:02;99796.38;;;8.41;56.01
55317;BME280;41178;48.956;8.130;2023-04-25T15:40:06;99860.44;;;9.68;53.18
55317;BME280;41178;48.956;8.130;2023-04-25T15:45:13;99885.47;;;10.59;53.19
55317;BME280;41178;48.956;8.130;2023-04-25T15:50:15;99916.78;;;10.97;51.29
55317;BME280;41178;48.956;8.130;2023-04-25T15:55:17;99881.50;;;10.78;52.19
55317;BME280;41178;48.956;8.130;2023-04-25T16:00:19;99863.69;;;10.47;50.98
55317;BME280;41178;48.956;8.130;2023-04-25T16:05:23;99906.34;;;11.02;51.63
55317;BME280;41178;48.956;8.130;2023-04-25T16:10:24;99838.88;;;10.01;50.53
55317;BME280;41178;48.956;8.130;2023-04-25T16:15:26;99930.75;;;11.58;50.16
55317;BME280;41178;48.956;8.130;2023-04-25T16:20:28;99853.38;;;10.74;50.12
55317;BME280;41178;48.956;8.130;2023-04-25T16:25:30;99782.34;;;9.81;51.16
55317;BME280;41178;48.956;8.130;2023-04-25T16:30:31;99816.22;;;9.34;53.22
55317;BME280;41178;48.956;8.130;2023-04-25T16:35:33;99865.09;;;10.58;51.35
55317;BME280;41178;48.956;8.130;2023-04-25T16:40:35;99901.16;;;11.00;51.02
55317;BME280;41178;48.956;8.130;2023-04-25T16:45:36;99778.69;;;9.58;52.79
55317;BME280;41178;48.956;8.130;2023-04-25T16:50:38;99789.91;;;9.77;53.32
55317;BME280;41178;48.956;8.130;2023-04-25T16:55:40;99822.09;;;10.07;52.92
55317;BME280;41178;48.956;8.130;2023-04-25T17:00:42;99779.78;;;9.41;54.24
55317;BME280;41178;48.956;8.130;2023-04-25T17:05:43;99861.41;;;10.59;52.38
55317;BME280;41178;48.956;8.130;2023-04-25T17:10:45;99879.38;;;10.88;52.57
55317;BME280;41178;48.956;8.130;2023-04-25T17:15:47;99879.16;;;11.05;51.43
55317;BME280;41178;48.956;8.130;2023-04-25T17:20:48;99879.16;;;11.20;52.03
55317;BME280;41178;48.956;8.130;2023-04-25T17:25:50;99867.34;;;11.29;51.55
55317;BME280;41178;48.956;8.130;2023-04-25T17:30:52;99887.69;;;11.60;52.22
55317;BME280;41178;48.956;8.130;2023-04-25T17:35:53;99731.09;;;9.08;55.90
55317;BME280;41178;48.956;8.130;2023-04-25T17:40:55;99816.97;;;10.20;54.15
55317;BME280;41178;48.956;8.130;2023-04-25T17:45:57;99832.88;;;10.51;53.63
55317;BME280;41178;48.956;8.130;2023-04-25T17:51:00;99843.16;;;10.78;53.37
55317;BME280;41178;48.956;8.130;2023-04-25T17:56:01;99787.69;;;9.89;54.31
55317;BME280;41178;48.956;8.130;2023-04-25T18:01:07;99769.28;;;9.16;56.16
55317;BME280;41178;48.956;8.130;2023-04-25T18:06:09;99695.28;;;8.06;58.57
55317;BME280;41178;48.956;8.130;2023-04-25T18:11:12;99823.25;;;9.58;55.81
55317;BME280;41178;48.956;8.130;2023-04-25T18:16:14;99859.41;;;10.23;54.21
55317;BME280;41178;48.956;8.130;2023-04-25T18:21:16;99871.97;;;10.38;54.26
55317;BME280;41178;48.956;8.130;2023-04-25T18:26:18;99844.75;;;9.65;55.44
55317;BME280;41178;48.956;8.130;2023-04-25T18:31:20;99823.44;;;9.56;55.31
55317;BME280;41178;48.956;8.130;2023-04-25T18:36:25;99824.69;;;9.46;55.09
55317;BME280;41178;48.956;8.130;2023-04-25T18:41:27;99855.78;;;9.93;53.73
55317;BME280;41178;48.956;8.130;2023-04-25T18:46:49;99885.13;;;10.24;53.03
55317;BME280;41178;48.956;8.130;2023-04-25T18:51:51;99956.66;;;11.06;51.97
55317;BME280;41178;48.956;8.130;2023-04-25T18:56:54;100001.09;;;11.60;51.31
55317;BME280;41178;48.956;8.130;2023-04-25T19:01:57;100014.22;;;11.85;50.72
55317;BME280;41178;48.956;8.130;2023-04-25T19:07:02;100000.91;;;11.77;50.92
55317;BME280;41178;48.956;8.130;2023-04-25T19:12:05;99998.41;;;11.60;51.29
55317;BME280;41178;48.956;8.130;2023-04-25T19:17:06;100001.75;;;11.77;50.72
55317;BME280;41178;48.956;8.130;2023-04-25T19:22:08;99940.38;;;10.93;51.95
55317;BME280;41178;48.956;8.130;2023-04-25T19:27:10;99985.84;;;11.76;50.62
55317;BME280;41178;48.956;8.130;2023-04-25T19:32:13;99977.94;;;11.68;50.64
55317;BME280;41178;48.956;8.130;2023-04-25T19:37:15;100009.41;;;11.95;49.84
55317;BME280;41178;48.956;8.130;2023-04-25T19:42:17;99940.03;;;11.11;50.96
55317;BME280;41178;48.956;8.130;2023-04-25T19:47:19;99919.25;;;10.83;52.32
55317;BME280;41178;48.956;8.130;2023-04-25T19:52:21;99884.50;;;9.99;54.05
55317;BME280;41178;48.956;8.130;2023-04-25T19:57:23;99936.84;;;10.78;52.04
55317;BME280;41178;48.956;8.130;2023-04-25T20:02:26;99981.97;;;11.49;51.30
55317;BME280;41178;48.956;8.130;2023-04-25T20:07:28;99952.94;;;10.93;51.89
55317;BME280;41178;48.956;8.130;2023-04-25T20:12:30;100004.06;;;11.80;50.96
55317;BME280;41178;48.956;8.130;2023-04-25T20:17:32;99961.44;;;11.71;50.74
55317;BME280;41178;48.956;8.130;2023-04-25T20:22:34;99994.03;;;12.04;50.52
55317;BME280;41178;48.956;8.130;2023-04-25T20:27:40;99987.03;;;12.03;50.26
55317;BME280;41178;48.956;8.130;2023-04-25T20:32:42;99996.16;;;12.09;50.36
55317;BME280;41178;48.956;8.130;2023-04-25T20:37:44;99890.97;;;10.81;52.39
55317;BME280;41178;48.956;8.130;2023-04-25T20:42:46;99964.59;;;11.59;52.20
55317;BME280;41178;48.956;8.130;2023-04-25T20:47:48;99882.38;;;10.32;54.06
55317;BME280;41178;48.956;8.130;2023-04-25T20:52:50;99967.66;;;11.71;51.86
55317;BME280;41178;48.956;8.130;2023-04-25T20:57:52;99869.44;;;9.98;54.93
55317;BME280;41178;48.956;8.130;2023-04-25T21:02:55;99913.53;;;11.01;52.33
55317;BME280;41178;48.956;8.130;2023-04-25T21:07:58;99917.00;;;10.49;53.82
55317;BME280;41178;48.956;8.130;2023-04-25T21:12:59;99906.44;;;10.32;54.01
55317;BME280;41178;48.956;8.130;2023-04-25T21:18:02;99920.09;;;10.99;52.14
55317;BME280;41178;48.956;8.130;2023-04-25T21:23:04;99991.09;;;11.84;50.23
55317;BME280;41178;48.956;8.130;2023-04-25T21:28:06;99922.38;;;10.49;53.37
55317;BME280;41178;48.956;8.130;2023-04-25T21:33:08;99871.66;;;9.94;53.57
55317;BME280;41178;48.956;8.130;2023-04-25T21:38:10;99917.34;;;10.08;53.53
55317;BME280;41178;48.956;8.130;2023-04-25T21:43:12;99946.31;;;10.65;52.61
55317;BME280;41178;48.956;8.130;2023-04-25T21:48:14;99931.00;;;10.74;52.34
55317;BME280;41178;48.956;8.130;2023-04-25T21:53:16;99926.50;;;10.75;51.82
55317;BME280;41178;48.956;8.130;2023-04-25T21:58:17;99965.16;;;11.40;50.91
55317;BME280;41178;48.956;8.130;2023-04-25T22:03:20;99914.03;;;10.67;51.68
55317;BME280;41178;48.956;8.130;2023-04-25T22:08:21;100006.75;;;11.80;50.02
55317;BME280;41178;48.956;8.130;2023-04-25T22:13:23;99954.22;;;10.82;52.29
55317;BME280;41178;48.956;8.130;2023-04-25T22:18:26;99904.72;;;9.93;54.00
55317;BME280;41178;48.956;8.130;2023-04-25T22:23:27;99982.44;;;11.22;51.68
55317;BME280;41178;48.956;8.130;2023-04-25T22:28:29;99995.91;;;11.59;50.53
55317;BME280;41178;48.956;8.130;2023-04-25T22:33:31;99926.53;;;10.28;53.06
55317;BME280;41178;48.956;8.130;2023-04-25T22:38:33;100016.28;;;11.83;50.21
55317;BME280;41178;48.956;8.130;2023-04-25T22:43:38;99950.47;;;11.21;50.75
55317;BME280;41178;48.956;8.130;2023-04-25T22:48:40;99975.66;;;10.82;52.26
55317;BME280;41178;48.956;8.130;2023-04-25T22:53:41;99976.06;;;11.38;50.76
55317;BME280;41178;48.956;8.130;2023-04-25T22:58:43;99987.97;;;11.66;50.32
55317;BME280;41178;48.956;8.130;2023-04-25T23:03:45;99985.72;;;11.62;49.42
55317;BME280;41178;48.956;8.130;2023-04-25T23:08:47;99936.53;;;10.73;51.38
55317;BME280;41178;48.956;8.130;2023-04-25T23:13:49;99922.44;;;10.41;51.90
55317;BME280;41178;48.956;8.130;2023-04-25T23:18:50;99931.94;;;10.20;52.41
55317;BME280;41178;48.956;8.130;2023-04-25T23:23:53;99954.28;;;10.27;52.21
55317;BME280;41178;48.956;8.130;2023-04-25T23:28:55;99894.34;;;9.28;54.60
55317;BME280;41178;48.956;8.130;2023-04-25T23:33:56;99822.00;;;8.50;55.60
55317;BME280;41178;48.956;8.130;2023-04-25T23:38:58;99877.16;;;8.74;55.29
55317;BME280;41178;48.956;8.130;2023-04-25T23:44:02;99914.41;;;9.24;54.40
55317;BME280;41178;48.956;8.130;2023-04-25T23:49:04;99891.50;;;8.73;56.13
55317;BME280;41178;48.956;8.130;2023-04-25T23:54:05;99882.53;;;8.41;56.88
55317;BME280;41178;48.956;8.130;2023-04-25T23:59:07;99923.84;;;8.87;55.98
